Time;durP1;ratioP1;P1;durP2;ratioP2;P2;SDS_P1;SDS_P2;PMS_P1;PMS_P2;Temp;Humidity;BMP_temperature;BMP_pressure;BME280_temperature;BME280_humidity;BME280_pressure;Samples;Min_cycle;Max_cycle;Signal;HPM_P1;HPM_P2
2021/12/24 00:00:12;;;;;;;8.05;4.57;;;;;;;;;;5075288;28;20037;-67
2021/12/24 00:02:38;;;;;;;6.65;4.38;;;;;;;;;;5075327;28;20052;-64
2021/12/24 00:05:05;;;;;;;8.60;4.18;;;;;;;;;;5075119;28;20037;-64
2021/12/24 00:07:31;;;;;;;15.70;4.28;;;;;;;;;;5056966;28;20546;-64
2021/12/24 00:09:58;;;;;;;5.90;3.70;;;;;;;;;;5075227;28;20067;-65
2021/12/24 00:12:26;;;;;;;6.93;3.28;;;;;;;;;;5059021;28;20025;-67
2021/12/24 00:14:57;;;;;;;4.75;3.38;;;;;;;;;;5075432;28;20043;-66
2021/12/24 00:17:29;;;;;;;6.97;3.42;;;;;;;;;;5075329;28;20028;-66
2021/12/24 00:20:28;;;;;;;10.90;3.40;;;;;;;;;;5075214;28;20392;-67
2021/12/24 00:36:36;;;;;;;6.65;3.08;;;;;;;;;;5074671;28;20105;-67
2021/12/24 00:39:02;;;;;;;11.38;2.65;;;;;;;;;;5074418;28;20078;-66
2021/12/24 00:41:28;;;;;;;5.85;2.70;;;;;;;;;;5061112;28;20032;-67
2021/12/24 00:43:54;;;;;;;6.53;2.85;;;;;;;;;;5054587;28;20032;-67
2021/12/24 00:46:20;;;;;;;5.82;2.75;;;;;;;;;;5059726;28;20020;-66
2021/12/24 00:48:48;;;;;;;4.40;2.60;;;;;;;;;;5074337;28;20036;-66
2021/12/24 00:51:31;;;;;;;7.35;3.13;;;;;;;;;;5056308;28;20467;-67
2021/12/24 00:56:42;;;;;;;5.45;2.67;;;;;;;;;;5074349;28;20138;-67
2021/12/24 00:59:08;;;;;;;6.53;3.00;;;;;;;;;;5074367;28;20048;-66
2021/12/24 01:01:34;;;;;;;5.68;2.60;;;;;;;;;;5074312;28;20196;-67
2021/12/24 01:04:00;;;;;;;6.57;3.13;;;;;;;;;;5074430;28;20025;-67
2021/12/24 01:06:26;;;;;;;5.63;2.67;;;;;;;;;;5074144;28;20088;-66
2021/12/24 01:08:52;;;;;;;6.38;2.83;;;;;;;;;;5074099;28;20460;-67
2021/12/24 01:11:18;;;;;;;7.32;3.00;;;;;;;;;;5073858;28;20460;-66
2021/12/24 01:13:44;;;;;;;7.15;2.97;;;;;;;;;;5074031;28;20062;-66
2021/12/24 01:16:27;;;;;;;8.75;3.17;;;;;;;;;;5074008;28;20020;-66
2021/12/24 01:19:02;;;;;;;;;;;;;;;;;;5074491;28;20020;-67
2021/12/24 01:22:02;;;;;;;5.60;2.90;;;;;;;;;;5055866;28;20291;-67
2021/12/24 01:24:45;;;;;;;5.18;2.70;;;;;;;;;;5075536;28;20051;-66
2021/12/24 01:27:39;;;;;;;6.38;3.10;;;;;;;;;;5073802;28;20027;-66
2021/12/24 01:38:22;;;;;;;8.93;2.67;;;;;;;;;;5073363;28;20059;-65
2021/12/24 01:43:18;;;;;;;9.52;2.92;;;;;;;;;;5072933;28;20375;-66
2021/12/24 01:45:47;;;;;;;9.35;2.85;;;;;;;;;;5073484;28;20463;-66
2021/12/24 01:48:13;;;;;;;10.88;2.78;;;;;;;;;;5073461;28;20029;-67
2021/12/24 01:50:42;;;;;;;8.63;3.10;;;;;;;;;;5073391;28;20175;-66
2021/12/24 01:53:08;;;;;;;10.68;2.95;;;;;;;;;;5073189;28;20106;-66
2021/12/24 01:55:34;;;;;;;6.63;2.90;;;;;;;;;;5055283;28;20403;-66
2021/12/24 01:58:00;;;;;;;8.88;2.85;;;;;;;;;;5073013;28;20033;-66
2021/12/24 02:00:31;;;;;;;13.18;3.03;;;;;;;;;;5073113;28;20021;-66
2021/12/24 02:02:58;;;;;;;13.73;3.05;;;;;;;;;;5072959;28;20024;-66
2021/12/24 02:05:24;;;;;;;6.88;2.72;;;;;;;;;;5073172;28;20021;-68
2021/12/24 02:07:50;;;;;;;11.38;2.90;;;;;;;;;;5055118;28;20111;-67
2021/12/24 02:10:17;;;;;;;7.90;3.17;;;;;;;;;;5072878;28;20024;-67
2021/12/24 02:12:43;;;;;;;12.35;2.67;;;;;;;;;;5072334;28;20043;-67
2021/12/24 02:15:15;;;;;;;8.95;2.70;;;;;;;;;;5072837;28;20108;-66
2021/12/24 02:18:21;;;;;;;5.72;2.20;;;;;;;;;;5072650;28;20162;-67
2021/12/24 02:28:57;;;;;;;8.68;2.20;;;;;;;;;;5092935;28;20054;-66
2021/12/24 02:31:25;;;;;;;10.98;2.83;;;;;;;;;;5092925;28;20021;-66
2021/12/24 02:33:51;;;;;;;10.65;2.40;;;;;;;;;;5092737;28;20391;-65
2021/12/24 02:36:18;;;;;;;8.60;2.80;;;;;;;;;;5092884;28;20028;-66
2021/12/24 02:38:44;;;;;;;7.03;2.40;;;;;;;;;;5092784;28;20020;-65
2021/12/24 02:41:11;;;;;;;7.18;2.70;;;;;;;;;;5081751;28;20116;-65
2021/12/24 02:43:38;;;;;;;8.82;2.85;;;;;;;;;;5072605;28;20028;-65
2021/12/24 02:46:15;;;;;;;12.25;2.88;;;;;;;;;;5072817;28;20025;-64
2021/12/24 02:49:01;;;;;;;8.73;2.33;;;;;;;;;;5052635;28;20036;-65
2021/12/24 02:54:14;;;;;;;9.45;2.42;;;;;;;;;;5073114;28;20039;-65
2021/12/24 02:56:45;;;;;;;7.20;2.53;;;;;;;;;;5076494;28;20021;-65
2021/12/24 02:59:13;;;;;;;5.70;2.38;;;;;;;;;;5076642;28;20032;-64
2021/12/24 03:01:41;;;;;;;8.77;2.67;;;;;;;;;;5076534;28;20028;-65
2021/12/24 03:04:08;;;;;;;8.02;2.75;;;;;;;;;;5076568;28;20021;-65
2021/12/24 03:06:35;;;;;;;8.30;2.67;;;;;;;;;;5076500;28;20029;-64
2021/12/24 03:09:06;;;;;;;7.50;2.53;;;;;;;;;;5058196;28;20033;-64
2021/12/24 03:11:32;;;;;;;7.80;2.55;;;;;;;;;;5076442;28;20048;-65
2021/12/24 03:13:58;;;;;;;6.30;2.50;;;;;;;;;;5076346;28;20059;-64
2021/12/24 03:16:24;;;;;;;5.88;2.20;;;;;;;;;;5058375;28;20364;-64
2021/12/24 03:18:51;;;;;;;7.07;2.92;;;;;;;;;;5076137;28;20063;-65
2021/12/24 03:21:30;;;;;;;9.00;2.72;;;;;;;;;;5075880;28;20079;-64
2021/12/24 03:26:28;;;;;;;7.77;2.40;;;;;;;;;;5076369;28;20451;-65
2021/12/24 03:28:54;;;;;;;5.68;2.30;;;;;;;;;;5075742;28;20261;-64
2021/12/24 03:31:20;;;;;;;7.88;2.67;;;;;;;;;;5076195;28;20027;-65
2021/12/24 03:33:46;;;;;;;7.43;2.20;;;;;;;;;;5074655;28;20036;-65
2021/12/24 03:36:13;;;;;;;7.55;2.55;;;;;;;;;;5074486;28;20031;-64
2021/12/24 03:38:39;;;;;;;6.15;2.47;;;;;;;;;;5075783;28;20036;-65
2021/12/24 03:41:05;;;;;;;9.18;2.38;;;;;;;;;;5075983;28;20025;-65
2021/12/24 03:43:31;;;;;;;7.75;2.90;;;;;;;;;;5075560;28;20025;-65
2021/12/24 03:46:02;;;;;;;9.80;2.97;;;;;;;;;;5075820;28;20025;-65
2021/12/24 03:48:55;;;;;;;8.55;2.58;;;;;;;;;;5075451;28;20028;-65
2021/12/24 03:51:46;;;;;;;9.50;2.53;;;;;;;;;;5075667;28;20017;-65
2021/12/24 03:56:57;;;;;;;6.65;2.40;;;;;;;;;;5075307;28;20040;-65
2021/12/24 03:59:23;;;;;;;7.20;2.53;;;;;;;;;;5075418;28;20388;-64
2021/12/24 04:01:49;;;;;;;4.85;2.13;;;;;;;;;;5075461;28;20055;-64
2021/12/24 04:04:15;;;;;;;5.10;1.95;;;;;;;;;;5057415;28;20029;-64
2021/12/24 04:06:41;;;;;;;7.50;2.35;;;;;;;;;;5074431;28;20016;-65
2021/12/24 04:09:07;;;;;;;6.65;2.47;;;;;;;;;;5057290;28;20119;-64
2021/12/24 04:11:34;;;;;;;8.80;2.60;;;;;;;;;;5075261;28;20028;-65
2021/12/24 04:14:00;;;;;;;5.30;2.03;;;;;;;;;;5075426;28;20025;-65
2021/12/24 04:16:28;;;;;;;5.30;2.38;;;;;;;;;;5075088;28;20028;-65
2021/12/24 04:19:21;;;;;;;7.25;2.13;;;;;;;;;;5075269;28;20032;-64
2021/12/24 04:27:15;;;;;;;6.82;2.58;;;;;;;;;;5095232;28;20028;-65
2021/12/24 04:29:41;;;;;;;6.22;2.58;;;;;;;;;;5095032;28;20024;-65
2021/12/24 04:32:18;;;;;;;8.75;2.40;;;;;;;;;;5095348;28;20031;-64
2021/12/24 04:34:47;;;;;;;8.25;2.33;;;;;;;;;;5095015;28;20421;-65
2021/12/24 04:50:54;;;;;;;6.43;2.30;;;;;;;;;;5094778;28;20116;-64
2021/12/24 05:02:02;;;;;;;8.80;2.58;;;;;;;;;;5074371;28;20093;-65
2021/12/24 05:04:32;;;;;;;10.85;2.40;;;;;;;;;;5074272;28;20017;-65
2021/12/24 05:07:08;;;;;;;6.95;2.38;;;;;;;;;;5074080;28;20059;-66
2021/12/24 05:09:38;;;;;;;6.97;2.33;;;;;;;;;;5074045;28;20436;-64
2021/12/24 05:12:04;;;;;;;11.90;2.88;;;;;;;;;;5074423;28;20060;-65
2021/12/24 05:14:31;;;;;;;8.60;2.85;;;;;;;;;;5074123;28;20029;-66
2021/12/24 05:17:18;;;;;;;9.40;2.88;;;;;;;;;;5073898;28;20494;-65
2021/12/24 05:22:38;;;;;;;8.30;2.83;;;;;;;;;;5073794;28;20446;-66
2021/12/24 05:25:05;;;;;;;11.32;2.17;;;;;;;;;;5075897;28;20025;-64
2021/12/24 05:27:31;;;;;;;8.95;2.35;;;;;;;;;;5073952;28;20020;-65
2021/12/24 05:29:57;;;;;;;12.95;2.72;;;;;;;;;;5073710;28;20040;-65
2021/12/24 05:32:23;;;;;;;7.13;2.25;;;;;;;;;;5073674;28;20032;-65
2021/12/24 05:34:49;;;;;;;8.75;2.40;;;;;;;;;;5073644;28;20028;-65
2021/12/24 05:37:15;;;;;;;11.43;2.33;;;;;;;;;;5072330;28;20032;-65
2021/12/24 05:39:41;;;;;;;7.95;2.30;;;;;;;;;;5073535;28;20066;-65
2021/12/24 05:42:07;;;;;;;10.43;2.15;;;;;;;;;;5056803;28;20032;-64
2021/12/24 05:44:33;;;;;;;13.23;2.92;;;;;;;;;;5073317;28;20029;-64
2021/12/24 05:47:00;;;;;;;7.82;2.50;;;;;;;;;;5073610;28;20031;-65
2021/12/24 05:49:25;;;;;;;9.25;2.45;;;;;;;;;;5073161;28;20464;-66
2021/12/24 05:51:52;;;;;;;4.75;2.05;;;;;;;;;;5073445;28;20028;-64
2021/12/24 05:54:17;;;;;;;7.15;2.20;;;;;;;;;;5073298;28;20051;-64
2021/12/24 05:56:44;;;;;;;8.18;2.15;;;;;;;;;;5073234;28;20420;-65
2021/12/24 05:59:10;;;;;;;8.95;2.90;;;;;;;;;;5073200;28;20047;-65
2021/12/24 06:01:37;;;;;;;10.35;2.50;;;;;;;;;;5073274;28;20055;-65
2021/12/24 06:04:03;;;;;;;7.60;2.03;;;;;;;;;;5073105;28;20034;-65
2021/12/24 06:06:29;;;;;;;7.93;2.13;;;;;;;;;;5055241;28;20454;-64
2021/12/24 06:08:55;;;;;;;5.70;2.08;;;;;;;;;;5073207;28;20734;-64
2021/12/24 06:11:21;;;;;;;13.77;2.65;;;;;;;;;;5073075;28;20371;-64
2021/12/24 06:13:51;;;;;;;9.00;2.10;;;;;;;;;;5054963;28;20037;-65
2021/12/24 06:16:18;;;;;;;7.22;2.10;;;;;;;;;;5069811;28;20028;-65
2021/12/24 06:18:44;;;;;;;9.40;2.72;;;;;;;;;;5072952;28;20035;-65
2021/12/24 06:21:10;;;;;;;8.10;2.00;;;;;;;;;;5072610;28;20487;-64
2021/12/24 06:23:38;;;;;;;7.15;2.20;;;;;;;;;;5074975;28;20407;-64
2021/12/24 06:26:05;;;;;;;7.75;2.65;;;;;;;;;;5071587;28;20100;-64
2021/12/24 06:28:31;;;;;;;11.52;2.55;;;;;;;;;;5072682;28;20024;-64
2021/12/24 06:30:57;;;;;;;11.50;2.33;;;;;;;;;;5072297;28;20043;-66
2021/12/24 06:33:23;;;;;;;8.32;2.00;;;;;;;;;;5072668;28;20037;-64
2021/12/24 06:35:51;;;;;;;15.63;2.50;;;;;;;;;;5072802;28;20433;-65
2021/12/24 06:38:17;;;;;;;8.27;2.53;;;;;;;;;;5072917;28;20036;-66
2021/12/24 06:40:43;;;;;;;10.18;2.63;;;;;;;;;;5072642;28;20021;-66
2021/12/24 06:43:09;;;;;;;9.90;2.33;;;;;;;;;;5072982;28;20031;-64
2021/12/24 06:45:35;;;;;;;7.78;2.40;;;;;;;;;;5072679;28;20025;-67
2021/12/24 06:48:02;;;;;;;16.58;3.05;;;;;;;;;;5072729;28;20037;-68
2021/12/24 06:50:28;;;;;;;16.83;2.50;;;;;;;;;;5072689;28;20029;-69
2021/12/24 06:52:54;;;;;;;22.52;2.65;;;;;;;;;;5072625;28;20033;-66
2021/12/24 06:55:21;;;;;;;35.47;2.45;;;;;;;;;;5072582;28;20044;-67
2021/12/24 06:57:48;;;;;;;22.88;2.60;;;;;;;;;;5072597;28;20055;-68
2021/12/24 07:00:16;;;;;;;17.63;2.42;;;;;;;;;;5072553;28;20398;-67
2021/12/24 07:02:42;;;;;;;12.10;2.55;;;;;;;;;;5072446;28;20036;-67
2021/12/24 07:05:08;;;;;;;16.40;2.67;;;;;;;;;;5072414;28;20060;-70
2021/12/24 07:07:34;;;;;;;16.50;2.42;;;;;;;;;;5072336;28;20029;-67
2021/12/24 07:10:00;;;;;;;11.80;2.72;;;;;;;;;;5072533;28;20100;-67
2021/12/24 07:12:26;;;;;;;20.73;3.33;;;;;;;;;;5070031;28;20040;-68
2021/12/24 07:14:52;;;;;;;18.15;4.68;;;;;;;;;;5071906;28;20024;-66
2021/12/24 07:17:18;;;;;;;13.38;5.43;;;;;;;;;;5072287;28;20021;-68
2021/12/24 07:19:44;;;;;;;17.10;6.05;;;;;;;;;;5056193;28;20029;-67
2021/12/24 07:22:12;;;;;;;21.85;7.35;;;;;;;;;;5069312;28;20060;-66
2021/12/24 07:24:39;;;;;;;20.73;7.07;;;;;;;;;;5066724;28;20043;-67
2021/12/24 07:27:05;;;;;;;24.45;8.25;;;;;;;;;;5072440;28;20422;-67
2021/12/24 07:29:31;;;;;;;20.05;7.97;;;;;;;;;;5061572;28;20031;-70
2021/12/24 07:31:57;;;;;;;21.05;7.70;;;;;;;;;;5052064;28;20096;-67
2021/12/24 07:34:23;;;;;;;39.08;8.65;;;;;;;;;;5068384;28;20036;-66
2021/12/24 07:36:49;;;;;;;26.55;8.40;;;;;;;;;;5072200;28;20107;-66
2021/12/24 07:39:15;;;;;;;27.73;9.45;;;;;;;;;;5054127;28;20035;-68
2021/12/24 07:41:41;;;;;;;32.60;8.27;;;;;;;;;;5055469;28;20020;-67
2021/12/24 07:44:08;;;;;;;25.70;8.60;;;;;;;;;;5076229;28;20025;-68
2021/12/24 07:46:44;;;;;;;21.20;7.57;;;;;;;;;;5074232;28;20033;-68
2021/12/24 07:50:00;;;;;;;25.55;7.88;;;;;;;;;;5062078;28;20028;-66
2021/12/24 07:54:32;;;;;;;23.63;7.53;;;;;;;;;;5072731;28;20036;-65
2021/12/24 07:56:59;;;;;;;21.65;7.25;;;;;;;;;;5068865;28;20543;-64
2021/12/24 07:59:26;;;;;;;24.45;6.63;;;;;;;;;;5071276;28;20035;-64
2021/12/24 08:01:53;;;;;;;21.25;6.72;;;;;;;;;;5073776;28;20029;-64
2021/12/24 08:04:20;;;;;;;27.73;6.45;;;;;;;;;;5073665;28;20052;-64
2021/12/24 08:06:45;;;;;;;25.67;6.25;;;;;;;;;;5073259;28;20147;-65
2021/12/24 08:09:11;;;;;;;27.63;5.15;;;;;;;;;;5073626;28;20119;-64
2021/12/24 08:11:38;;;;;;;25.35;5.75;;;;;;;;;;5074048;28;20029;-64
2021/12/24 08:14:05;;;;;;;16.27;5.45;;;;;;;;;;5073940;28;20120;-65
2021/12/24 08:16:32;;;;;;;24.98;6.00;;;;;;;;;;5056056;28;20020;-64
2021/12/24 08:18:58;;;;;;;18.23;4.57;;;;;;;;;;5073703;28;20043;-65
2021/12/24 08:21:25;;;;;;;15.35;4.15;;;;;;;;;;5055142;28;20052;-67
2021/12/24 08:23:51;;;;;;;14.45;4.35;;;;;;;;;;5075897;28;20025;-66
2021/12/24 08:26:18;;;;;;;15.10;3.75;;;;;;;;;;5072654;28;20031;-68
2021/12/24 08:28:44;;;;;;;16.23;4.25;;;;;;;;;;5071509;28;20037;-65
2021/12/24 08:31:10;;;;;;;14.55;3.72;;;;;;;;;;5058445;28;20053;-66
2021/12/24 08:33:36;;;;;;;14.20;3.95;;;;;;;;;;5068491;28;20115;-66
2021/12/24 08:36:04;;;;;;;15.10;3.55;;;;;;;;;;5073749;28;20131;-67
2021/12/24 08:38:30;;;;;;;18.90;3.83;;;;;;;;;;5055613;28;20444;-66
2021/12/24 08:40:56;;;;;;;22.75;3.88;;;;;;;;;;5052929;28;20037;-67
2021/12/24 08:43:22;;;;;;;18.50;4.10;;;;;;;;;;5064521;28;20095;-66
2021/12/24 08:45:48;;;;;;;22.83;3.25;;;;;;;;;;5070575;28;20514;-66
2021/12/24 08:48:14;;;;;;;17.17;3.40;;;;;;;;;;5068833;28;20042;-66
2021/12/24 08:50:40;;;;;;;23.02;3.67;;;;;;;;;;5054408;28;20408;-65
2021/12/24 08:53:07;;;;;;;22.20;3.58;;;;;;;;;;5064943;28;20111;-65
2021/12/24 08:55:33;;;;;;;20.40;4.10;;;;;;;;;;5073130;28;20028;-64
2021/12/24 08:57:59;;;;;;;19.50;3.55;;;;;;;;;;5073055;28;20027;-67
2021/12/24 09:00:25;;;;;;;21.98;3.55;;;;;;;;;;5072844;28;20056;-67
2021/12/24 09:02:51;;;;;;;16.55;3.78;;;;;;;;;;5073070;28;20111;-68
2021/12/24 09:05:17;;;;;;;17.27;3.45;;;;;;;;;;5075175;28;20033;-68
2021/12/24 09:07:43;;;;;;;15.05;2.70;;;;;;;;;;5073336;28;20047;-67
2021/12/24 09:10:10;;;;;;;16.65;3.10;;;;;;;;;;5053872;28;20056;-66
2021/12/24 09:12:37;;;;;;;10.98;2.47;;;;;;;;;;5053684;28;20033;-72
2021/12/24 09:15:04;;;;;;;16.45;3.10;;;;;;;;;;5073853;28;20052;-68
2021/12/24 09:17:30;;;;;;;11.13;2.50;;;;;;;;;;5054611;28;20195;-67
2021/12/24 09:19:57;;;;;;;17.15;2.92;;;;;;;;;;5072281;28;20107;-69
2021/12/24 09:22:29;;;;;;;19.23;4.38;;;;;;;;;;5054439;28;20045;-70
2021/12/24 09:24:56;;;;;;;19.73;3.58;;;;;;;;;;5051567;28;20131;-69
2021/12/24 09:27:22;;;;;;;20.52;3.40;;;;;;;;;;5072102;28;20024;-69
2021/12/24 09:29:48;;;;;;;21.67;3.65;;;;;;;;;;5072228;28;20020;-69
2021/12/24 09:32:14;;;;;;;21.88;3.65;;;;;;;;;;5071990;28;20130;-68
2021/12/24 09:34:41;;;;;;;21.83;3.45;;;;;;;;;;5072351;28;20288;-68
2021/12/24 09:37:07;;;;;;;16.95;3.10;;;;;;;;;;5071761;28;20056;-67
2021/12/24 09:39:33;;;;;;;19.65;3.40;;;;;;;;;;5072011;28;20161;-67
2021/12/24 09:42:00;;;;;;;18.63;4.15;;;;;;;;;;5054474;28;20045;-67
2021/12/24 09:44:26;;;;;;;17.42;2.97;;;;;;;;;;5052325;28;20029;-67
2021/12/24 09:46:52;;;;;;;15.50;2.80;;;;;;;;;;5051813;28;20088;-68
2021/12/24 09:49:19;;;;;;;19.45;3.17;;;;;;;;;;5048535;28;20032;-67
2021/12/24 09:51:46;;;;;;;15.35;2.85;;;;;;;;;;5072259;28;20048;-68
2021/12/24 09:54:16;;;;;;;39.85;3.63;;;;;;;;;;5054593;28;20032;-68
2021/12/24 09:56:43;;;;;;;23.17;3.38;;;;;;;;;;5072214;28;20033;-67
2021/12/24 09:59:10;;;;;;;26.17;3.75;;;;;;;;;;5070574;28;20154;-65
2021/12/24 10:01:39;;;;;;;24.92;3.08;;;;;;;;;;5072118;28;20039;-67
2021/12/24 10:04:07;;;;;;;19.92;3.13;;;;;;;;;;5071628;28;20020;-67
2021/12/24 10:06:33;;;;;;;24.13;3.67;;;;;;;;;;5054022;28;20025;-68
2021/12/24 10:09:00;;;;;;;18.25;2.92;;;;;;;;;;5071958;28;20036;-68
2021/12/24 10:11:29;;;;;;;20.00;3.10;;;;;;;;;;5072419;28;20533;-67
2021/12/24 10:14:03;;;;;;;18.42;2.80;;;;;;;;;;5054174;28;20041;-67
2021/12/24 10:16:29;;;;;;;19.80;2.83;;;;;;;;;;5072454;28;20020;-67
2021/12/24 10:18:57;;;;;;;14.73;2.78;;;;;;;;;;5072283;28;20024;-67
2021/12/24 10:21:27;;;;;;;20.35;3.10;;;;;;;;;;5071856;28;20098;-67
2021/12/24 10:23:59;;;;;;;22.80;2.53;;;;;;;;;;5074361;28;20536;-67
2021/12/24 10:26:26;;;;;;;16.13;3.22;;;;;;;;;;5072331;28;20106;-67
2021/12/24 10:29:03;;;;;;;11.73;2.47;;;;;;;;;;5072202;28;20025;-67
2021/12/24 10:31:31;;;;;;;11.38;2.17;;;;;;;;;;5071972;28;20029;-67
2021/12/24 10:34:04;;;;;;;11.13;2.63;;;;;;;;;;5071405;28;20029;-67
2021/12/24 10:36:30;;;;;;;12.35;2.42;;;;;;;;;;5053770;28;20483;-67
2021/12/24 10:38:56;;;;;;;30.52;3.35;;;;;;;;;;5071841;28;20028;-66
2021/12/24 10:41:24;;;;;;;24.73;3.28;;;;;;;;;;5072140;28;20056;-65
2021/12/24 10:43:52;;;;;;;23.67;3.03;;;;;;;;;;5072069;28;20472;-65
2021/12/24 10:46:22;;;;;;;43.67;3.80;;;;;;;;;;5053909;28;20032;-65
2021/12/24 10:49:07;;;;;;;73.82;6.47;;;;;;;;;;5053774;28;20032;-65
2021/12/24 10:51:54;;;;;;;46.53;3.25;;;;;;;;;;5071853;28;20112;-66
2021/12/24 10:54:21;;;;;;;66.95;4.13;;;;;;;;;;5071721;28;20472;-65
2021/12/24 10:56:47;;;;;;;38.53;3.80;;;;;;;;;;5071218;28;20032;-65
2021/12/24 10:59:13;;;;;;;21.08;3.25;;;;;;;;;;5071576;28;20086;-63
2021/12/24 11:01:39;;;;;;;56.40;3.75;;;;;;;;;;5071796;28;20025;-64
2021/12/24 11:04:05;;;;;;;30.23;3.50;;;;;;;;;;5071472;28;20120;-65
2021/12/24 11:06:32;;;;;;;38.65;3.10;;;;;;;;;;5071408;28;20033;-65
2021/12/24 11:08:59;;;;;;;40.70;3.25;;;;;;;;;;5071249;28;20032;-65
2021/12/24 11:11:35;;;;;;;43.03;3.28;;;;;;;;;;5053805;28;20469;-68
2021/12/24 11:14:01;;;;;;;21.55;2.53;;;;;;;;;;5071487;28;20483;-65
2021/12/24 11:16:27;;;;;;;23.60;3.03;;;;;;;;;;5074305;28;20025;-74
2021/12/24 11:19:01;;;;;;;26.95;3.33;;;;;;;;;;5057680;28;20113;-76
2021/12/24 11:21:28;;;;;;;29.88;3.50;;;;;;;;;;5075688;28;20036;-74
2021/12/24 11:23:54;;;;;;;30.88;3.67;;;;;;;;;;5083052;28;20028;-70
2021/12/24 11:26:21;;;;;;;24.75;2.80;;;;;;;;;;5095924;28;20127;-75
2021/12/24 11:28:48;;;;;;;22.15;3.30;;;;;;;;;;5077441;28;20585;-74
2021/12/24 11:31:18;;;;;;;28.95;2.53;;;;;;;;;;5077539;28;20463;-69
2021/12/24 11:33:46;;;;;;;33.95;3.22;;;;;;;;;;5095403;28;20395;-71
2021/12/24 11:36:13;;;;;;;32.08;3.50;;;;;;;;;;5077202;28;20027;-71
2021/12/24 11:38:41;;;;;;;29.63;3.78;;;;;;;;;;5067723;28;20033;-69
2021/12/24 11:41:11;;;;;;;41.28;3.92;;;;;;;;;;5074880;28;20480;-68
2021/12/24 11:43:38;;;;;;;29.63;4.18;;;;;;;;;;5074983;28;20023;-68
2021/12/24 11:46:05;;;;;;;42.85;3.30;;;;;;;;;;5074662;28;20067;-68
2021/12/24 11:48:33;;;;;;;47.95;3.78;;;;;;;;;;5056411;28;20035;-70
2021/12/24 11:51:04;;;;;;;25.10;3.67;;;;;;;;;;5074716;28;20013;-68
2021/12/24 11:53:33;;;;;;;20.25;2.65;;;;;;;;;;5056451;28;20097;-67
2021/12/24 11:56:02;;;;;;;19.95;3.00;;;;;;;;;;5074819;28;20553;-68
2021/12/24 11:58:28;;;;;;;21.73;2.95;;;;;;;;;;5056330;28;20052;-68
2021/12/24 12:00:55;;;;;;;17.95;3.05;;;;;;;;;;5074476;28;20017;-68
2021/12/24 12:03:33;;;;;;;23.30;3.08;;;;;;;;;;5074256;28;20036;-68
2021/12/24 12:06:00;;;;;;;19.95;3.40;;;;;;;;;;5074598;28;20024;-66
2021/12/24 12:08:27;;;;;;;15.63;2.95;;;;;;;;;;5074275;28;20052;-64
2021/12/24 12:11:04;;;;;;;18.23;2.60;;;;;;;;;;5074719;28;20029;-68
2021/12/24 12:13:36;;;;;;;21.40;2.83;;;;;;;;;;5074151;28;20090;-67
2021/12/24 12:16:03;;;;;;;17.83;2.85;;;;;;;;;;5074618;28;20032;-68
2021/12/24 12:18:30;;;;;;;20.35;3.63;;;;;;;;;;5074120;28;20387;-67
2021/12/24 12:21:09;;;;;;;14.70;2.63;;;;;;;;;;5073986;28;20040;-67
2021/12/24 12:23:48;;;;;;;15.82;2.95;;;;;;;;;;5060277;28;20029;-67
2021/12/24 12:26:33;;;;;;;11.75;2.75;;;;;;;;;;5094720;28;20434;-68
2021/12/24 12:29:18;;;;;;;13.93;2.95;;;;;;;;;;5093778;28;20080;-68
2021/12/24 12:31:44;;;;;;;12.48;2.83;;;;;;;;;;5076294;28;20024;-67
2021/12/24 12:34:29;;;;;;;13.18;2.75;;;;;;;;;;5094545;28;20040;-67
2021/12/24 12:37:11;;;;;;;14.68;2.83;;;;;;;;;;5094293;28;20078;-68
2021/12/24 12:39:37;;;;;;;12.75;2.90;;;;;;;;;;5093957;28;20024;-67
2021/12/24 12:42:03;;;;;;;11.75;2.45;;;;;;;;;;5074935;28;20119;-67
2021/12/24 12:44:29;;;;;;;17.05;2.67;;;;;;;;;;5093090;28;20027;-67
2021/12/24 12:47:08;;;;;;;11.48;2.70;;;;;;;;;;5093282;28;20103;-67
2021/12/24 12:49:35;;;;;;;20.33;2.65;;;;;;;;;;5093049;28;20055;-67
2021/12/24 12:52:03;;;;;;;11.48;2.33;;;;;;;;;;5061513;28;20032;-67
2021/12/24 12:54:39;;;;;;;12.15;2.30;;;;;;;;;;5072746;28;20036;-67
2021/12/24 12:57:22;;;;;;;10.60;2.33;;;;;;;;;;5073196;28;20029;-68
2021/12/24 13:00:07;;;;;;;11.00;2.08;;;;;;;;;;5054967;28;20032;-67
2021/12/24 13:03:06;;;;;;;12.13;2.97;;;;;;;;;;5072624;28;20024;-67
2021/12/24 13:05:33;;;;;;;7.50;2.30;;;;;;;;;;5072488;28;20028;-68
2021/12/24 13:08:10;;;;;;;8.38;2.33;;;;;;;;;;5072876;28;20028;-67
2021/12/24 13:10:36;;;;;;;6.53;1.63;;;;;;;;;;5072486;28;20484;-68
2021/12/24 13:13:03;;;;;;;8.65;1.75;;;;;;;;;;5072564;28;20036;-68
2021/12/24 13:15:30;;;;;;;6.63;1.50;;;;;;;;;;5072522;28;20025;-67
2021/12/24 13:18:01;;;;;;;5.28;1.70;;;;;;;;;;5072168;28;20021;-68
2021/12/24 13:23:22;;;;;;;8.13;2.10;;;;;;;;;;5042141;28;20083;-68
2021/12/24 13:25:48;;;;;;;13.45;2.38;;;;;;;;;;5093140;28;20028;-68
2021/12/24 13:28:14;;;;;;;9.88;2.20;;;;;;;;;;5093360;28;20494;-67
2021/12/24 13:30:40;;;;;;;8.07;1.95;;;;;;;;;;5093362;28;20048;-67
2021/12/24 13:33:08;;;;;;;10.55;2.08;;;;;;;;;;5093235;28;20480;-67
2021/12/24 13:35:45;;;;;;;7.97;2.22;;;;;;;;;;5093642;28;20024;-67
2021/12/24 13:38:12;;;;;;;7.22;2.00;;;;;;;;;;5074833;28;20051;-67
2021/12/24 13:40:38;;;;;;;5.68;1.90;;;;;;;;;;5092535;28;20028;-67
2021/12/24 13:43:06;;;;;;;6.30;1.77;;;;;;;;;;5093256;28;20032;-67
2021/12/24 13:45:35;;;;;;;8.02;2.03;;;;;;;;;;5074984;28;20020;-68
2021/12/24 13:48:07;;;;;;;7.43;1.80;;;;;;;;;;5093237;28;20031;-67
2021/12/24 13:56:14;;;;;;;8.43;2.05;;;;;;;;;;5072865;28;20035;-68
2021/12/24 13:58:40;;;;;;;8.70;2.30;;;;;;;;;;5072949;28;20480;-67
2021/12/24 14:01:06;;;;;;;6.25;1.88;;;;;;;;;;5072600;28;20040;-67
2021/12/24 14:03:33;;;;;;;8.88;2.20;;;;;;;;;;5054590;28;20032;-68
2021/12/24 14:06:04;;;;;;;5.85;2.05;;;;;;;;;;5072338;28;20052;-68
2021/12/24 14:08:32;;;;;;;7.50;1.92;;;;;;;;;;5072535;28;20029;-67
2021/12/24 14:11:12;;;;;;;7.43;1.98;;;;;;;;;;5072462;28;20028;-67
2021/12/24 14:13:44;;;;;;;5.40;1.83;;;;;;;;;;5054512;28;20446;-67
2021/12/24 14:23:30;;;;;;;11.05;1.98;;;;;;;;;;5076929;28;20084;-68
2021/12/24 14:25:57;;;;;;;8.73;1.85;;;;;;;;;;5092400;28;20020;-68
2021/12/24 14:28:24;;;;;;;6.70;2.10;;;;;;;;;;5092909;28;20028;-68
2021/12/24 14:31:10;;;;;;;7.63;2.28;;;;;;;;;;5092360;28;20012;-68
2021/12/24 14:33:37;;;;;;;5.68;1.90;;;;;;;;;;5092409;28;20164;-68
2021/12/24 14:36:04;;;;;;;8.40;1.92;;;;;;;;;;5092595;28;20028;-67
2021/12/24 14:38:30;;;;;;;6.72;1.45;;;;;;;;;;5092455;28;20108;-68
2021/12/24 14:40:58;;;;;;;7.70;2.20;;;;;;;;;;5092210;28;20024;-68
2021/12/24 14:43:24;;;;;;;7.60;2.20;;;;;;;;;;5092587;28;20031;-67
2021/12/24 14:45:51;;;;;;;7.47;1.90;;;;;;;;;;5074064;28;20140;-68
2021/12/24 14:48:27;;;;;;;7.53;1.95;;;;;;;;;;5091966;28;20120;-67
2021/12/24 14:51:02;;;;;;;7.70;2.08;;;;;;;;;;5071550;28;20024;-68
2021/12/24 14:53:36;;;;;;;7.90;2.00;;;;;;;;;;5075825;28;20464;-67
2021/12/24 14:56:20;;;;;;;5.82;1.67;;;;;;;;;;5075765;28;20121;-68
2021/12/24 14:58:47;;;;;;;8.13;2.17;;;;;;;;;;5076011;28;20108;-68
2021/12/24 15:01:19;;;;;;;8.43;2.05;;;;;;;;;;5075549;28;20059;-68
2021/12/24 15:03:46;;;;;;;8.65;1.90;;;;;;;;;;5075795;28;20032;-68
2021/12/24 15:06:15;;;;;;;5.70;1.70;;;;;;;;;;5076185;28;20053;-68
2021/12/24 15:08:41;;;;;;;7.95;1.77;;;;;;;;;;5076451;28;20464;-68
2021/12/24 15:11:11;;;;;;;6.22;2.25;;;;;;;;;;5075953;28;20027;-69
2021/12/24 15:13:39;;;;;;;3.97;1.65;;;;;;;;;;5076224;28;20110;-69
2021/12/24 15:16:05;;;;;;;5.80;1.73;;;;;;;;;;5075803;28;20025;-68
2021/12/24 15:18:31;;;;;;;4.25;1.75;;;;;;;;;;5058187;28;20154;-68
2021/12/24 15:20:58;;;;;;;4.60;1.75;;;;;;;;;;5075865;28;20127;-68
2021/12/24 15:23:24;;;;;;;5.45;1.55;;;;;;;;;;5079181;28;20032;-68
2021/12/24 15:25:50;;;;;;;4.20;1.70;;;;;;;;;;5096217;28;20024;-68
2021/12/24 15:28:20;;;;;;;4.70;1.70;;;;;;;;;;5096166;28;20031;-68
2021/12/24 15:30:47;;;;;;;7.25;1.73;;;;;;;;;;5096022;28;20020;-68
2021/12/24 15:33:14;;;;;;;6.53;1.88;;;;;;;;;;5096015;28;20043;-68
2021/12/24 15:35:39;;;;;;;3.88;1.42;;;;;;;;;;5096109;28;20099;-68
2021/12/24 15:38:06;;;;;;;5.07;1.73;;;;;;;;;;5096091;28;20102;-68
2021/12/24 15:40:32;;;;;;;4.90;1.55;;;;;;;;;;5096062;28;20029;-67
2021/12/24 15:43:02;;;;;;;3.85;1.58;;;;;;;;;;5095837;28;20028;-68
2021/12/24 15:45:29;;;;;;;5.32;1.65;;;;;;;;;;5096302;28;20027;-68
2021/12/24 15:47:55;;;;;;;3.58;1.50;;;;;;;;;;5095760;28;20020;-68
2021/12/24 15:50:21;;;;;;;5.00;1.52;;;;;;;;;;5096127;28;20035;-67
2021/12/24 15:52:46;;;;;;;4.68;1.60;;;;;;;;;;5075691;28;20040;-68
2021/12/24 15:55:12;;;;;;;3.70;1.35;;;;;;;;;;5075308;28;20024;-68
2021/12/24 15:57:38;;;;;;;3.90;1.70;;;;;;;;;;5075480;28;20025;-68
2021/12/24 16:00:05;;;;;;;2.70;1.20;;;;;;;;;;5075401;28;20029;-68
2021/12/24 16:02:31;;;;;;;4.05;1.60;;;;;;;;;;5074297;28;20541;-67
2021/12/24 16:04:57;;;;;;;4.32;1.42;;;;;;;;;;5075506;28;20099;-68
2021/12/24 16:07:23;;;;;;;5.97;1.52;;;;;;;;;;5075651;28;20025;-68
2021/12/24 16:09:49;;;;;;;2.10;1.30;;;;;;;;;;5075279;28;20510;-68
2021/12/24 16:12:15;;;;;;;3.28;1.20;;;;;;;;;;5075453;28;20033;-68
2021/12/24 16:14:43;;;;;;;3.60;1.17;;;;;;;;;;5075382;28;20089;-68
2021/12/24 16:17:09;;;;;;;4.40;1.20;;;;;;;;;;5075495;28;20017;-68